createdAt,value
2023-05-10T00:01:46.777Z,86.42
2023-05-10T00:04:14.679Z,84.76
2023-05-10T00:06:44.207Z,86.36
2023-05-10T00:09:11.703Z,85.08
2023-05-10T00:11:39.231Z,85.77
2023-05-10T00:14:06.733Z,86.55
2023-05-10T00:19:01.185Z,86.71
2023-05-10T00:21:29.343Z,87.55
2023-05-10T00:23:58.192Z,90.00
2023-05-10T00:26:25.721Z,90.22
2023-05-10T00:28:53.270Z,90.43
2023-05-10T00:31:20.886Z,89.38
2023-05-10T00:33:48.402Z,89.05
2023-05-10T00:36:15.877Z,90.74
2023-05-10T00:38:43.384Z,89.14
2023-05-10T00:41:12.220Z,91.57
2023-05-10T00:43:39.693Z,89.37
2023-05-10T00:46:07.684Z,91.16
2023-05-10T00:48:36.247Z,90.56
2023-05-10T00:51:04.518Z,92.94
2023-05-10T00:53:33.140Z,92.85
2023-05-10T00:56:01.068Z,90.03
2023-05-10T00:58:31.806Z,91.14
2023-05-10T01:01:00.370Z,92.76
2023-05-10T01:03:28.164Z,93.46
2023-05-10T01:05:56.092Z,91.47
2023-05-10T01:08:23.757Z,93.16
2023-05-10T01:10:51.645Z,91.77
2023-05-10T01:13:32.351Z,92.03
2023-05-10T01:16:02.862Z,93.38
2023-05-10T01:18:32.724Z,93.21
2023-05-10T01:21:13.079Z,96.39
2023-05-10T01:24:11.479Z,96.04
2023-05-10T01:27:09.527Z,93.31
2023-05-10T01:30:15.356Z,92.99
2023-05-10T01:32:52.325Z,96.84
2023-05-10T01:35:28.721Z,95.21
2023-05-10T01:38:06.204Z,92.75
2023-05-10T01:40:39.448Z,96.83
2023-05-10T01:43:19.383Z,98.09
2023-05-10T01:45:58.222Z,96.12
2023-05-10T01:48:30.519Z,98.04
2023-05-10T01:50:59.638Z,93.55
2023-05-10T01:53:28.450Z,95.65
2023-05-10T01:55:57.608Z,94.56
2023-05-10T01:58:29.501Z,95.58
2023-05-10T02:00:59.309Z,94.83
2023-05-10T02:03:30.239Z,93.13
2023-05-10T02:05:59.358Z,96.32
2023-05-10T02:08:27.918Z,95.44
2023-05-10T02:10:58.113Z,96.32
2023-05-10T02:13:27.935Z,98.90
2023-05-10T02:15:57.083Z,97.19
2023-05-10T02:18:27.646Z,96.06
2023-05-10T02:20:58.284Z,100.00
2023-05-10T02:23:27.201Z,100.00
2023-05-10T02:25:56.924Z,98.61
2023-05-10T02:28:26.259Z,98.64
2023-05-10T02:30:54.865Z,98.22
2023-05-10T02:33:23.249Z,99.94
2023-05-10T02:35:52.805Z,99.36
2023-05-10T02:38:24.498Z,100.00
2023-05-10T02:40:52.993Z,100.00
2023-05-10T02:43:23.324Z,100.00
2023-05-10T02:45:51.176Z,100.00
2023-05-10T02:48:18.967Z,100.00
2023-05-10T02:50:47.668Z,100.00
2023-05-10T02:53:20.400Z,100.00
2023-05-10T02:55:53.498Z,100.00
2023-05-10T02:58:21.735Z,100.00
2023-05-10T03:00:49.238Z,100.00
2023-05-10T03:03:16.710Z,100.00
2023-05-10T03:05:44.306Z,100.00
2023-05-10T03:08:12.132Z,100.00
2023-05-10T03:10:48.597Z,100.00
2023-05-10T03:13:31.047Z,100.00
2023-05-10T03:16:06.667Z,100.00
2023-05-10T03:18:42.248Z,100.00
2023-05-10T03:21:13.313Z,100.00
2023-05-10T03:23:45.043Z,100.00
2023-05-10T03:26:19.138Z,100.00
2023-05-10T03:28:50.414Z,100.00
2023-05-10T03:31:19.043Z,100.00
2023-05-10T03:33:49.893Z,100.00
2023-05-10T03:36:17.686Z,100.00
2023-05-10T03:38:45.201Z,100.00
2023-05-10T03:41:12.665Z,100.00
2023-05-10T03:43:40.119Z,100.00
2023-05-10T03:46:09.109Z,100.00
2023-05-10T03:48:36.563Z,100.00
2023-05-10T03:51:04.134Z,100.00
2023-05-10T03:53:31.802Z,100.00
2023-05-10T03:55:59.335Z,100.00
2023-05-10T03:58:26.815Z,100.00
2023-05-10T04:00:54.267Z,100.00
2023-05-10T04:03:23.870Z,100.00
2023-05-10T04:05:59.983Z,100.00
2023-05-10T04:08:27.626Z,100.00
2023-05-10T04:10:55.115Z,100.00
2023-05-10T04:13:23.493Z,100.00
2023-05-10T04:15:51.042Z,100.00
2023-05-10T04:18:18.615Z,100.00
2023-05-10T04:20:47.438Z,100.00
2023-05-10T04:23:15.167Z,100.00
2023-05-10T04:25:42.744Z,100.00
2023-05-10T04:28:10.319Z,100.00
2023-05-10T04:30:38.024Z,100.00
2023-05-10T04:33:05.597Z,100.00
2023-05-10T04:35:33.110Z,100.00
2023-05-10T04:38:01.906Z,100.00
2023-05-10T04:40:29.612Z,100.00
2023-05-10T04:42:57.244Z,100.00
2023-05-10T04:45:24.682Z,100.00
2023-05-10T04:47:52.140Z,100.00
2023-05-10T04:50:19.955Z,100.00
2023-05-10T04:52:47.435Z,100.00
2023-05-10T04:55:17.022Z,100.00
2023-05-10T04:57:44.503Z,100.00
2023-05-10T05:00:13.143Z,100.00
2023-05-10T05:02:44.904Z,100.00
2023-05-10T05:05:12.551Z,100.00
2023-05-10T05:07:40.371Z,100.00
2023-05-10T05:10:09.012Z,100.00
2023-05-10T05:12:37.816Z,100.00
2023-05-10T05:15:07.295Z,100.00
2023-05-10T05:17:36.634Z,100.00
2023-05-10T05:20:05.037Z,100.00
2023-05-10T05:22:32.378Z,100.00
2023-05-10T05:25:00.000Z,100.00
2023-05-10T05:27:28.741Z,100.00
2023-05-10T05:29:58.506Z,100.00
2023-05-10T05:32:26.853Z,100.00
2023-05-10T05:34:54.219Z,100.00
2023-05-10T05:37:23.442Z,100.00
2023-05-10T05:39:50.976Z,100.00
2023-05-10T05:42:19.691Z,100.00
2023-05-10T05:44:47.407Z,100.00
2023-05-10T05:47:16.239Z,100.00
2023-05-10T05:49:46.534Z,100.00
2023-05-10T05:52:14.357Z,100.00
2023-05-10T05:54:45.110Z,100.00
2023-05-10T05:57:12.808Z,100.00
2023-05-10T05:59:42.800Z,100.00
2023-05-10T06:02:10.515Z,100.00
2023-05-10T06:04:39.852Z,99.56
2023-05-10T06:07:07.684Z,100.00
2023-05-10T06:09:35.224Z,100.00
2023-05-10T06:12:02.676Z,100.00
2023-05-10T06:14:30.126Z,100.00
2023-05-10T06:16:57.746Z,100.00
2023-05-10T06:19:25.310Z,100.00
2023-05-10T06:21:54.131Z,100.00
2023-05-10T06:24:22.119Z,99.44
2023-05-10T06:26:50.863Z,98.52
2023-05-10T06:29:18.478Z,100.00
2023-05-10T06:31:46.120Z,98.75
2023-05-10T06:34:14.409Z,99.26
2023-05-10T06:36:42.061Z,98.63
2023-05-10T06:39:12.547Z,98.54
2023-05-10T06:41:40.031Z,97.37
2023-05-10T06:44:07.481Z,97.71
2023-05-10T06:46:35.026Z,96.66
2023-05-10T06:49:02.512Z,95.97
2023-05-10T06:51:29.978Z,95.86
2023-05-10T06:54:00.254Z,95.13
2023-05-10T06:56:29.166Z,93.32
2023-05-10T06:58:56.734Z,92.21
2023-05-10T07:01:24.437Z,93.58
2023-05-10T07:03:51.998Z,94.42
2023-05-10T07:06:32.260Z,92.49
2023-05-10T07:09:01.250Z,94.23
2023-05-10T07:11:30.125Z,93.32
2023-05-10T07:13:57.636Z,92.70
2023-05-10T07:16:25.103Z,94.23
2023-05-10T07:18:53.928Z,93.13
2023-05-10T07:21:21.869Z,91.78
2023-05-10T07:23:49.498Z,93.09
2023-05-10T07:26:17.009Z,92.12
2023-05-10T07:28:45.811Z,93.49
2023-05-10T07:31:13.246Z,93.06
2023-05-10T07:33:40.957Z,92.52
2023-05-10T07:36:08.728Z,91.85
2023-05-10T07:38:37.119Z,92.13
2023-05-10T07:41:05.525Z,92.76
2023-05-10T07:43:33.004Z,91.09
2023-05-10T07:46:02.004Z,89.93
2023-05-10T07:48:29.501Z,91.70
2023-05-10T07:50:57.281Z,90.67
2023-05-10T07:53:24.842Z,89.71
2023-05-10T07:55:52.700Z,91.80
2023-05-10T07:58:20.430Z,90.49
2023-05-10T08:00:48.103Z,89.70
2023-05-10T08:03:17.169Z,88.60
2023-05-10T08:05:44.706Z,88.45
2023-05-10T08:08:12.299Z,87.34
2023-05-10T08:10:40.896Z,86.08
2023-05-10T08:13:08.324Z,88.39
2023-05-10T08:15:35.836Z,86.82
2023-05-10T08:18:03.322Z,86.36
2023-05-10T08:20:32.126Z,83.76
2023-05-10T08:22:59.700Z,82.89
2023-05-10T08:25:27.373Z,84.14
2023-05-10T08:27:54.876Z,84.14
2023-05-10T08:30:22.605Z,86.03
2023-05-10T08:32:50.215Z,86.73
2023-05-10T08:35:18.314Z,89.74
2023-05-10T08:37:47.279Z,93.59
2023-05-10T08:40:17.258Z,97.78
2023-05-10T08:42:51.388Z,100.00
2023-05-10T08:45:20.994Z,99.13
2023-05-10T08:47:48.830Z,98.32
2023-05-10T08:50:18.318Z,100.00
2023-05-10T08:52:48.730Z,100.00
2023-05-10T08:55:17.799Z,100.00
2023-05-10T08:57:45.527Z,100.00
2023-05-10T09:00:17.288Z,100.00
2023-05-10T09:02:46.732Z,98.77
2023-05-10T09:05:17.224Z,98.96
2023-05-10T09:07:45.060Z,97.10
2023-05-10T09:10:15.563Z,96.77
2023-05-10T09:12:44.883Z,90.11
2023-05-10T09:15:12.736Z,93.53
2023-05-10T09:17:42.343Z,87.56
2023-05-10T09:20:10.173Z,88.24
2023-05-10T09:22:38.620Z,88.36
2023-05-10T09:25:07.970Z,84.95
2023-05-10T09:27:37.351Z,82.29
2023-05-10T09:30:08.755Z,80.85
2023-05-10T09:32:40.368Z,80.68
2023-05-10T09:35:09.466Z,81.11
2023-05-10T09:37:36.985Z,79.44
2023-05-10T09:40:08.391Z,77.62
2023-05-10T09:42:37.247Z,76.28
2023-05-10T09:45:08.491Z,75.39
2023-05-10T09:47:37.107Z,78.25
2023-05-10T09:50:05.583Z,77.22
2023-05-10T09:52:47.197Z,76.94
2023-05-10T09:55:14.940Z,76.33
2023-05-10T09:57:44.129Z,76.50
2023-05-10T10:00:13.292Z,74.29
2023-05-10T10:02:41.192Z,72.79
2023-05-10T10:05:09.490Z,72.63
2023-05-10T10:07:37.182Z,74.48
2023-05-10T10:10:05.768Z,72.98
2023-05-10T10:12:33.306Z,73.80
2023-05-10T10:15:02.660Z,74.57
2023-05-10T10:17:32.590Z,75.20
2023-05-10T10:20:00.611Z,75.70
2023-05-10T10:22:28.082Z,76.61
2023-05-10T10:24:57.785Z,77.41
2023-05-10T10:27:30.627Z,76.87
2023-05-10T10:30:08.564Z,76.70
2023-05-10T10:32:49.724Z,76.44
2023-05-10T10:35:18.153Z,75.62
2023-05-10T10:37:47.771Z,75.62
2023-05-10T10:40:25.698Z,74.79
2023-05-10T10:42:54.515Z,74.74
2023-05-10T10:45:24.693Z,75.37
2023-05-10T10:48:21.259Z,75.80
2023-05-10T10:50:48.757Z,75.42
2023-05-10T10:53:16.247Z,75.24
2023-05-10T10:55:50.035Z,74.59
2023-05-10T11:01:13.902Z,75.71
2023-05-10T11:03:41.757Z,75.15
2023-05-10T11:06:09.846Z,74.33
2023-05-10T11:08:44.701Z,76.70
2023-05-10T11:11:16.786Z,75.56
2023-05-10T11:13:50.892Z,75.62
2023-05-10T11:16:22.247Z,76.22
2023-05-10T11:18:55.228Z,77.21
2023-05-10T11:21:23.143Z,77.56
2023-05-10T11:23:52.664Z,75.88
2023-05-10T11:26:23.970Z,77.05
2023-05-10T11:28:51.900Z,77.40
2023-05-10T11:31:21.857Z,76.11
2023-05-10T11:33:50.884Z,77.21
2023-05-10T11:36:19.769Z,77.51
2023-05-10T11:38:47.508Z,76.50
2023-05-10T11:41:15.788Z,76.76
2023-05-10T11:43:43.822Z,76.82
2023-05-10T11:46:13.886Z,78.51
2023-05-10T11:48:43.829Z,76.40
2023-05-10T11:51:12.743Z,79.36
2023-05-10T11:53:40.318Z,76.85
2023-05-10T11:56:08.961Z,75.48
2023-05-10T11:58:37.467Z,74.58
2023-05-10T12:01:06.791Z,73.23
2023-05-10T12:03:34.975Z,75.15
2023-05-10T12:06:04.376Z,72.81
2023-05-10T12:08:32.683Z,72.88
2023-05-10T12:11:06.602Z,69.41
2023-05-10T12:13:34.066Z,70.06
2023-05-10T12:16:01.676Z,72.24
2023-05-10T12:18:29.239Z,70.65
2023-05-10T12:21:06.435Z,71.87
2023-05-10T12:23:34.300Z,70.90
2023-05-10T12:26:04.743Z,70.53
2023-05-10T12:28:32.794Z,70.79
2023-05-10T12:31:01.719Z,72.54
2023-05-10T12:33:29.340Z,73.59
2023-05-10T12:35:57.278Z,71.49
2023-05-10T12:38:30.258Z,71.81
2023-05-10T12:40:58.677Z,72.57
2023-05-10T12:43:26.273Z,73.53
2023-05-10T12:45:53.778Z,70.54
2023-05-10T12:48:21.690Z,69.93
2023-05-10T12:50:49.312Z,67.37
2023-05-10T12:53:17.438Z,68.21
2023-05-10T12:55:46.572Z,67.26
2023-05-10T12:58:24.062Z,67.15
2023-05-10T13:01:01.873Z,67.26
2023-05-10T13:03:29.515Z,67.46
2023-05-10T13:05:57.025Z,67.45
2023-05-10T13:08:24.662Z,66.34
2023-05-10T13:10:54.112Z,67.12
2023-05-10T13:13:21.553Z,68.44
2023-05-10T13:15:48.970Z,66.57
2023-05-10T13:18:16.687Z,64.49
2023-05-10T13:20:45.140Z,64.85
2023-05-10T13:23:12.744Z,64.74
2023-05-10T13:25:40.207Z,65.49
2023-05-10T13:28:09.001Z,63.76
2023-05-10T13:30:36.459Z,64.60
2023-05-10T13:33:04.025Z,65.23
2023-05-10T13:35:31.518Z,67.20
2023-05-10T13:37:59.058Z,66.22
2023-05-10T13:40:26.621Z,68.23
2023-05-10T13:42:54.173Z,68.44
2023-05-10T13:45:23.018Z,67.89
2023-05-10T13:47:50.608Z,68.90
2023-05-10T13:50:18.992Z,70.07
2023-05-10T13:52:46.468Z,71.72
2023-05-10T13:55:14.712Z,73.65
2023-05-10T13:57:43.781Z,72.70
2023-05-10T14:00:12.208Z,72.40
2023-05-10T14:02:41.428Z,72.51
2023-05-10T14:05:09.439Z,72.68
2023-05-10T14:07:36.952Z,72.62
2023-05-10T14:10:04.763Z,71.13
2023-05-10T14:12:32.319Z,72.06
2023-05-10T14:15:00.034Z,73.11
2023-05-10T14:17:27.536Z,72.87
2023-05-10T14:19:56.603Z,73.70
2023-05-10T14:22:24.040Z,73.17
2023-05-10T14:24:51.639Z,75.38
2023-05-10T14:27:19.116Z,73.79
2023-05-10T14:29:46.551Z,74.52
2023-05-10T14:32:14.105Z,75.16
2023-05-10T14:34:41.659Z,74.61
2023-05-10T14:37:12.261Z,74.71
2023-05-10T14:39:39.981Z,76.51
2023-05-10T14:42:07.549Z,74.84
2023-05-10T14:44:35.053Z,74.78
2023-05-10T14:47:02.593Z,75.71
2023-05-10T14:49:30.127Z,76.94
2023-05-10T14:51:57.732Z,77.48
2023-05-10T14:54:26.861Z,76.72
2023-05-10T14:56:54.604Z,76.90
2023-05-10T14:59:27.362Z,76.05
2023-05-10T15:01:55.366Z,75.09
2023-05-10T15:04:23.592Z,75.35
2023-05-10T15:06:52.329Z,74.12
2023-05-10T15:09:20.110Z,73.08
2023-05-10T15:11:49.134Z,73.25
2023-05-10T15:14:16.659Z,72.93
2023-05-10T15:16:44.245Z,72.79
2023-05-10T15:19:11.801Z,72.35
2023-05-10T15:21:39.552Z,72.88
2023-05-10T15:24:07.232Z,72.38
2023-05-10T15:26:34.742Z,74.46
2023-05-10T15:29:03.597Z,73.69
2023-05-10T15:31:31.227Z,75.06
2023-05-10T15:34:00.033Z,73.88
2023-05-10T15:36:27.600Z,73.07
2023-05-10T15:38:55.524Z,72.36
2023-05-10T15:41:23.000Z,72.80
2023-05-10T15:43:51.134Z,72.61
2023-05-10T15:46:19.936Z,73.78
2023-05-10T15:48:47.461Z,75.50
2023-05-10T15:51:15.436Z,75.72
2023-05-10T15:53:56.506Z,76.06
2023-05-10T15:56:30.992Z,77.53
2023-05-10T15:58:58.494Z,79.48
2023-05-10T16:01:27.495Z,80.52
2023-05-10T16:03:55.090Z,80.06
2023-05-10T16:06:22.673Z,81.12
2023-05-10T16:08:50.237Z,82.43
2023-05-10T16:11:17.751Z,82.18
2023-05-10T16:13:45.191Z,83.85
2023-05-10T16:16:12.742Z,82.94
2023-05-10T16:18:41.758Z,83.02
2023-05-10T16:21:09.275Z,83.00
2023-05-10T16:23:36.893Z,83.00
2023-05-10T16:26:04.565Z,82.58
2023-05-10T16:28:32.418Z,80.76
2023-05-10T16:30:59.921Z,80.16
2023-05-10T16:33:27.605Z,80.71
2023-05-10T16:35:56.596Z,80.38
2023-05-10T16:38:24.048Z,79.96
2023-05-10T16:40:51.544Z,80.29
2023-05-10T16:43:19.164Z,81.21
2023-05-10T16:45:46.765Z,80.72
2023-05-10T16:48:14.312Z,80.49
2023-05-10T16:50:44.472Z,80.40
2023-05-10T16:53:13.315Z,81.35
2023-05-10T16:55:41.196Z,81.07
2023-05-10T16:58:09.890Z,81.09
2023-05-10T17:00:37.367Z,81.93
2023-05-10T17:03:05.273Z,82.34
2023-05-10T17:05:32.781Z,82.80
2023-05-10T17:08:00.806Z,83.13
2023-05-10T17:10:29.726Z,83.14
2023-05-10T17:12:57.314Z,83.94
2023-05-10T17:15:24.839Z,83.31
2023-05-10T17:17:52.526Z,84.14
2023-05-10T17:20:20.315Z,84.07
2023-05-10T17:22:47.924Z,83.77
2023-05-10T17:25:15.905Z,84.08
2023-05-10T17:27:44.991Z,84.26
2023-05-10T17:30:13.680Z,83.30
2023-05-10T17:32:41.232Z,84.20
2023-05-10T17:35:09.914Z,84.86
2023-05-10T17:37:37.372Z,84.52
2023-05-10T17:40:07.723Z,84.41
2023-05-10T17:42:35.197Z,85.14
2023-05-10T17:45:04.291Z,86.35
2023-05-10T17:47:31.939Z,86.40
2023-05-10T17:49:59.396Z,86.43
2023-05-10T17:52:26.950Z,86.72
2023-05-10T17:54:54.387Z,87.64
2023-05-10T17:57:22.260Z,88.53
2023-05-10T17:59:49.793Z,86.21
2023-05-10T18:02:18.671Z,86.76
2023-05-10T18:04:46.204Z,88.48
2023-05-10T18:07:13.882Z,88.24
2023-05-10T18:09:41.347Z,88.03
2023-05-10T18:12:08.927Z,90.15
2023-05-10T18:14:41.253Z,91.24
2023-05-10T18:17:10.382Z,90.69
2023-05-10T18:19:39.282Z,90.89
2023-05-10T18:22:08.945Z,90.12
2023-05-10T18:24:40.314Z,90.08
2023-05-10T18:27:08.916Z,92.70
2023-05-10T18:29:37.322Z,90.86
2023-05-10T18:32:04.930Z,90.68
2023-05-10T18:34:32.394Z,90.14
2023-05-10T18:37:02.390Z,89.87
2023-05-10T18:39:30.580Z,90.44
2023-05-10T18:42:00.483Z,89.01
2023-05-10T18:44:29.206Z,87.65
2023-05-10T18:46:56.745Z,88.00
2023-05-10T18:49:24.299Z,88.22
2023-05-10T18:51:52.005Z,86.83
2023-05-10T18:54:23.328Z,91.23
2023-05-10T18:56:50.981Z,94.72
2023-05-10T18:59:18.563Z,92.86
2023-05-10T19:01:46.162Z,93.79
2023-05-10T19:04:13.745Z,92.70
2023-05-10T19:06:44.255Z,92.47
2023-05-10T19:09:11.869Z,92.83
2023-05-10T19:11:43.143Z,92.85
2023-05-10T19:14:10.679Z,93.38
2023-05-10T19:16:38.424Z,93.48
2023-05-10T19:19:08.179Z,93.10
2023-05-10T19:21:35.971Z,92.37
2023-05-10T19:24:04.688Z,92.77
2023-05-10T19:26:32.252Z,92.04
2023-05-10T19:29:02.732Z,91.99
2023-05-10T19:31:30.910Z,91.68
2023-05-10T19:34:00.897Z,92.75
2023-05-10T19:36:28.691Z,92.91
2023-05-10T19:38:57.888Z,91.53
2023-05-10T19:41:25.636Z,93.45
2023-05-10T19:43:53.160Z,92.75
2023-05-10T19:46:22.047Z,93.16
2023-05-10T19:48:50.040Z,92.70
2023-05-10T19:51:17.726Z,91.97
2023-05-10T19:53:45.232Z,91.36
2023-05-10T19:56:12.861Z,90.20
2023-05-10T19:58:40.906Z,91.93
2023-05-10T20:01:08.436Z,91.66
2023-05-10T20:03:37.372Z,91.43
2023-05-10T20:06:05.274Z,92.07
2023-05-10T20:08:32.739Z,92.04
2023-05-10T20:11:02.516Z,91.91
2023-05-10T20:13:30.782Z,92.69
2023-05-10T20:15:59.373Z,92.45
2023-05-10T20:18:27.204Z,92.89
2023-05-10T20:20:56.714Z,92.92
2023-05-10T20:23:24.318Z,91.39
2023-05-10T20:25:51.915Z,91.12
2023-05-10T20:28:23.874Z,89.81
2023-05-10T20:30:53.687Z,89.54
2023-05-10T20:33:21.816Z,89.82
2023-05-10T20:35:51.096Z,91.64
2023-05-10T20:38:20.934Z,91.18
2023-05-10T20:40:49.023Z,90.46
2023-05-10T20:43:16.500Z,90.94
2023-05-10T20:45:43.966Z,90.67
2023-05-10T20:48:11.594Z,90.66
2023-05-10T20:50:39.311Z,90.99
2023-05-10T20:53:06.913Z,91.94
2023-05-10T20:55:35.969Z,90.39
2023-05-10T20:58:04.937Z,91.78
2023-05-10T21:00:32.822Z,91.15
2023-05-10T21:03:00.314Z,92.00
2023-05-10T21:05:27.930Z,91.40
2023-05-10T21:07:55.523Z,93.18
2023-05-10T21:10:23.055Z,91.55
2023-05-10T21:12:51.928Z,90.93
2023-05-10T21:15:19.380Z,90.56
2023-05-10T21:17:46.876Z,91.88
2023-05-10T21:20:14.959Z,91.21
2023-05-10T21:22:42.654Z,90.97
2023-05-10T21:25:10.772Z,90.83
2023-05-10T21:27:38.326Z,90.68
2023-05-10T21:30:08.651Z,91.75
2023-05-10T21:32:36.709Z,92.13
2023-05-10T21:35:04.378Z,94.04
2023-05-10T21:37:31.846Z,92.04
2023-05-10T21:39:59.285Z,93.31
2023-05-10T21:42:26.849Z,93.16
2023-05-10T21:44:54.499Z,92.44
2023-05-10T21:47:23.352Z,92.20
2023-05-10T21:49:51.383Z,93.14
2023-05-10T21:52:18.876Z,92.03
2023-05-10T21:54:46.380Z,93.71
2023-05-10T21:57:14.015Z,92.38
2023-05-10T21:59:41.652Z,92.70
2023-05-10T22:02:09.226Z,91.52
2023-05-10T22:04:38.035Z,93.42
2023-05-10T22:07:05.534Z,93.89
2023-05-10T22:09:32.982Z,94.53
2023-05-10T22:12:00.537Z,93.70
2023-05-10T22:14:28.031Z,92.85
2023-05-10T22:16:55.635Z,92.72
2023-05-10T22:19:23.122Z,93.65
2023-05-10T22:21:51.930Z,94.50
2023-05-10T22:24:19.554Z,96.42
2023-05-10T22:26:46.979Z,95.90
2023-05-10T22:29:14.447Z,95.02
2023-05-10T22:31:41.941Z,94.71
2023-05-10T22:34:09.445Z,93.85
2023-05-10T22:36:37.231Z,95.02
2023-05-10T22:39:06.078Z,95.35
2023-05-10T22:41:34.070Z,95.90
2023-05-10T22:44:02.239Z,95.19
2023-05-10T22:46:30.128Z,97.04
2023-05-10T22:48:57.621Z,96.55
2023-05-10T22:51:25.107Z,97.54
2023-05-10T22:53:52.522Z,99.03
2023-05-10T22:56:21.681Z,100.00
2023-05-10T22:58:49.281Z,100.00
2023-05-10T23:01:17.009Z,100.00
2023-05-10T23:03:44.607Z,100.00
2023-05-10T23:06:12.069Z,98.39
2023-05-10T23:08:39.651Z,95.11
2023-05-10T23:11:07.093Z,94.06
2023-05-10T23:13:35.897Z,94.33
2023-05-10T23:16:06.980Z,94.54
2023-05-10T23:18:34.849Z,95.58
2023-05-10T23:21:02.429Z,95.00
2023-05-10T23:23:30.027Z,96.11
2023-05-10T23:25:57.621Z,97.46
2023-05-10T23:28:25.117Z,100.00
2023-05-10T23:30:57.339Z,99.72
2023-05-10T23:33:25.861Z,99.75
2023-05-10T23:35:53.959Z,98.64
2023-05-10T23:38:21.596Z,98.20
2023-05-10T23:40:49.965Z,99.43
2023-05-10T23:43:17.624Z,98.74
2023-05-10T23:45:53.391Z,99.78
2023-05-10T23:48:22.396Z,97.91
2023-05-10T23:50:50.573Z,97.68
2023-05-10T23:53:18.266Z,97.88
2023-05-10T23:55:46.302Z,98.34
2023-05-10T23:58:13.875Z,98.75
